createdAt,value
2022-10-13T00:01:24.797Z,99791.75
2022-10-13T00:04:36.671Z,99786.40
2022-10-13T00:07:48.343Z,99779.45
2022-10-13T00:11:00.398Z,99779.45
2022-10-13T00:14:13.516Z,99792.17
2022-10-13T00:17:25.123Z,99784.93
2022-10-13T00:20:36.909Z,99781.35
2022-10-13T00:23:49.369Z,99784.75
2022-10-13T00:27:03.322Z,99778.81
2022-10-13T00:30:17.095Z,99781.23
2022-10-13T00:33:29.111Z,99780.78
2022-10-13T00:36:40.982Z,99779.88
2022-10-13T00:39:52.695Z,99779.51
2022-10-13T00:43:06.367Z,99782.91
2022-10-13T00:46:18.082Z,99779.42
2022-10-13T00:49:30.102Z,99777.56
2022-10-13T00:52:42.844Z,99779.28
2022-10-13T00:55:56.974Z,99781.63
2022-10-13T00:59:10.506Z,99774.91
2022-10-13T01:02:24.234Z,99776.14
2022-10-13T01:05:38.989Z,99772.43
2022-10-13T01:08:50.779Z,99769.11
2022-10-13T01:12:11.679Z,99768.80
2022-10-13T01:15:30.306Z,99767.55
2022-10-13T01:18:48.421Z,99764.54
2022-10-13T01:22:09.974Z,99756.83
2022-10-13T01:25:33.367Z,99755.48
2022-10-13T01:29:05.277Z,99758.74
2022-10-13T01:32:22.747Z,99752.63
2022-10-13T01:35:53.354Z,99753.11
2022-10-13T01:39:10.220Z,99750.08
2022-10-13T01:42:26.861Z,99744.83
2022-10-13T01:45:43.041Z,99746.77
2022-10-13T01:48:59.876Z,99739.02
2022-10-13T01:52:18.129Z,99744.38
2022-10-13T01:55:32.000Z,99738.16
2022-10-13T01:58:44.814Z,99742.20
2022-10-13T02:02:07.042Z,99735.39
2022-10-13T02:05:26.450Z,99737.25
2022-10-13T02:08:43.522Z,99739.28
2022-10-13T02:11:58.234Z,99746.39
2022-10-13T02:15:16.927Z,99737.27
2022-10-13T02:18:33.952Z,99734.17
2022-10-13T02:21:43.923Z,99732.32
2022-10-13T02:24:56.402Z,99729.56
2022-10-13T02:28:10.033Z,99729.38
2022-10-13T02:31:23.573Z,99734.03
2022-10-13T02:34:35.272Z,99729.00
2022-10-13T02:37:46.964Z,99733.57
2022-10-13T02:40:58.818Z,99731.85
2022-10-13T02:44:11.408Z,99730.86
2022-10-13T02:47:26.125Z,99736.25
2022-10-13T02:50:37.968Z,99732.80
2022-10-13T02:53:49.624Z,99727.84
2022-10-13T02:57:01.250Z,99728.22
2022-10-13T03:00:16.860Z,99730.55
2022-10-13T03:03:28.531Z,99724.05
2022-10-13T03:06:40.766Z,99726.05
2022-10-13T03:09:52.598Z,99721.65
2022-10-13T03:13:04.848Z,99728.75
2022-10-13T03:16:16.785Z,99725.61
2022-10-13T03:19:28.725Z,99726.30
2022-10-13T03:22:40.977Z,99721.05
2022-10-13T03:25:52.655Z,99714.24
2022-10-13T03:29:04.328Z,99723.41
2022-10-13T03:32:16.539Z,99725.27
2022-10-13T03:35:28.393Z,99717.55
2022-10-13T03:38:41.178Z,99718.16
2022-10-13T03:41:53.159Z,99722.08
2022-10-13T03:45:04.829Z,99715.84
2022-10-13T03:48:18.406Z,99726.16
2022-10-13T03:51:30.355Z,99691.80
2022-10-13T03:54:41.995Z,99716.83
2022-10-13T03:57:53.634Z,99712.13
2022-10-13T04:01:09.976Z,99713.97
2022-10-13T04:04:22.000Z,99714.64
2022-10-13T04:07:34.822Z,99714.96
2022-10-13T04:10:48.952Z,99712.80
2022-10-13T04:14:01.457Z,99714.96
2022-10-13T04:17:13.278Z,99711.48
2022-10-13T04:20:25.105Z,99713.57
2022-10-13T04:23:38.166Z,99709.60
2022-10-13T04:26:50.513Z,99715.55
2022-10-13T04:30:02.432Z,99710.88
2022-10-13T04:33:14.535Z,99708.34
2022-10-13T04:36:27.094Z,99688.70
2022-10-13T04:39:39.143Z,99714.57
2022-10-13T04:42:51.035Z,99711.09
2022-10-13T04:46:08.249Z,99714.23
2022-10-13T05:04:40.384Z,99705.80
2022-10-13T05:07:52.256Z,99718.98
2022-10-13T05:11:06.831Z,99715.30
2022-10-13T05:14:21.507Z,99716.64
2022-10-13T05:17:35.791Z,99714.72
2022-10-13T05:20:50.183Z,99712.68
2022-10-13T05:24:05.372Z,99709.77
2022-10-13T05:27:20.339Z,99712.68
2022-10-13T05:30:32.320Z,99722.89
2022-10-13T05:33:46.065Z,99721.66
2022-10-13T05:36:59.723Z,99727.43
2022-10-13T05:40:15.451Z,99731.25
2022-10-13T05:43:27.218Z,99726.00
2022-10-13T05:46:39.890Z,99718.42
2022-10-13T05:49:51.669Z,99722.44
2022-10-13T05:53:04.385Z,99724.20
2022-10-13T05:56:20.362Z,99721.98
2022-10-13T05:59:33.642Z,99728.70
2022-10-13T06:02:50.949Z,99723.61
2022-10-13T06:06:03.856Z,99729.18
2022-10-13T06:09:16.173Z,99719.14
2022-10-13T06:12:28.797Z,99728.70
2022-10-13T06:15:40.808Z,99724.84
2022-10-13T06:18:53.531Z,99710.51
2022-10-13T06:22:05.464Z,99728.94
2022-10-13T06:25:17.972Z,99726.69
2022-10-13T06:28:31.127Z,99724.55
2022-10-13T06:31:42.869Z,99727.09
2022-10-13T06:34:54.718Z,99727.92
2022-10-13T06:38:06.354Z,99724.27
2022-10-13T06:41:19.226Z,99721.56
2022-10-13T06:44:31.175Z,99734.01
2022-10-13T06:47:44.678Z,99727.77
2022-10-13T06:50:56.929Z,99725.44
2022-10-13T06:54:08.642Z,99718.25
2022-10-13T06:57:20.365Z,99716.02
2022-10-13T07:00:32.004Z,99716.87
2022-10-13T07:03:43.843Z,99714.94
2022-10-13T07:06:55.604Z,99712.25
2022-10-13T07:10:09.521Z,99709.91
2022-10-13T07:16:34.145Z,99712.69
2022-10-13T07:19:48.705Z,99712.52
2022-10-13T07:23:01.714Z,99713.42
2022-10-13T07:26:17.662Z,99715.77
2022-10-13T07:29:29.396Z,99703.91
2022-10-13T07:32:42.404Z,99700.42
2022-10-13T07:35:54.250Z,99703.05
2022-10-13T07:39:06.913Z,99704.69
2022-10-13T07:42:19.144Z,99695.19
2022-10-13T07:45:31.349Z,99692.92
2022-10-13T07:48:43.773Z,99690.30
2022-10-13T07:51:55.992Z,99689.53
2022-10-13T07:55:07.993Z,99687.90
2022-10-13T07:58:19.659Z,99677.66
2022-10-13T08:01:32.460Z,99673.31
2022-10-13T08:04:44.679Z,99669.11
2022-10-13T08:07:58.458Z,99668.66
2022-10-13T08:11:16.190Z,99664.76
2022-10-13T08:14:27.517Z,99655.23
2022-10-13T08:17:39.966Z,99648.80
2022-10-13T08:20:59.254Z,99648.50
2022-10-13T08:24:06.294Z,99637.53
2022-10-13T08:27:22.425Z,99624.88
2022-10-13T08:30:34.495Z,99623.66
2022-10-13T08:33:47.613Z,99622.16
2022-10-13T08:37:01.086Z,99615.09
2022-10-13T08:40:18.619Z,99599.38
2022-10-13T08:43:32.123Z,99591.77
2022-10-13T08:46:51.039Z,99600.16
2022-10-13T08:50:04.337Z,99591.92
2022-10-13T08:53:25.643Z,99594.73
2022-10-13T08:56:40.443Z,99583.55
2022-10-13T08:59:52.361Z,99586.01
2022-10-13T09:03:11.924Z,99584.54
2022-10-13T09:06:31.870Z,99574.78
2022-10-13T09:09:44.315Z,99568.59
2022-10-13T09:12:57.007Z,99571.45
2022-10-13T09:16:09.347Z,99566.45
2022-10-13T09:19:33.375Z,99560.60
2022-10-13T09:22:46.146Z,99563.52
2022-10-13T09:26:01.454Z,99565.27
2022-10-13T09:29:22.131Z,99564.42
2022-10-13T09:32:34.551Z,99558.73
2022-10-13T09:35:50.356Z,99550.47
2022-10-13T09:39:20.223Z,99550.45
2022-10-13T09:42:34.961Z,99542.56
2022-10-13T09:45:49.792Z,99547.98
2022-10-13T09:49:07.075Z,99542.16
2022-10-13T09:52:27.788Z,99541.34
2022-10-13T09:55:41.948Z,99536.39
2022-10-13T09:59:02.671Z,99538.25
2022-10-13T10:02:31.411Z,99531.36
2022-10-13T10:05:51.753Z,99522.41
2022-10-13T10:09:10.146Z,99524.00
2022-10-13T10:12:27.954Z,99507.08
2022-10-13T10:15:49.647Z,99513.16
2022-10-13T10:19:09.896Z,99510.13
2022-10-13T10:22:29.716Z,99497.56
2022-10-13T10:25:45.802Z,99495.20
2022-10-13T10:29:26.922Z,99488.20
2022-10-13T10:32:47.142Z,99482.55
2022-10-13T10:36:06.039Z,99488.05
2022-10-13T10:39:25.266Z,99479.98
2022-10-13T10:42:52.454Z,99472.61
2022-10-13T10:46:03.851Z,99470.97
2022-10-13T10:49:24.399Z,99468.63
2022-10-13T10:52:41.712Z,99459.71
2022-10-13T10:55:59.732Z,99459.55
2022-10-13T10:59:30.136Z,99458.22
2022-10-13T11:02:56.325Z,99449.50
2022-10-13T11:06:20.631Z,99448.15
2022-10-13T11:10:07.164Z,99441.39
2022-10-13T11:13:26.192Z,99431.30
2022-10-13T11:16:43.467Z,99432.84
2022-10-13T11:19:59.353Z,99429.16
2022-10-13T11:23:38.027Z,99424.94
2022-10-13T11:26:51.144Z,99423.58
2022-10-13T11:30:06.726Z,99407.41
2022-10-13T11:34:00.127Z,99401.45
2022-10-13T11:37:23.209Z,99391.47
2022-10-13T11:40:43.226Z,99375.42
2022-10-13T11:44:00.799Z,99387.41
2022-10-13T11:47:19.846Z,99380.14
2022-10-13T11:50:39.991Z,99385.09
2022-10-13T11:54:00.230Z,99376.48
2022-10-13T11:57:28.357Z,99373.85
2022-10-13T12:00:41.884Z,99370.08
2022-10-13T12:03:54.677Z,99372.50
2022-10-13T12:07:11.732Z,99372.89
2022-10-13T12:10:29.868Z,99374.48
2022-10-13T12:13:43.784Z,99366.69
2022-10-13T12:17:03.100Z,99365.80
2022-10-13T12:20:30.755Z,99372.56
2022-10-13T12:23:41.239Z,99372.22
2022-10-13T12:26:53.310Z,99366.56
2022-10-13T12:30:07.678Z,99362.38
2022-10-13T12:33:32.518Z,99356.89
2022-10-13T12:36:44.506Z,99349.52
2022-10-13T12:39:56.752Z,99344.66
2022-10-13T12:43:11.905Z,99342.12
2022-10-13T12:46:44.866Z,99343.11
2022-10-13T12:49:56.772Z,99329.70
2022-10-13T12:53:25.652Z,99336.09
2022-10-13T12:56:39.363Z,99328.32
2022-10-13T12:59:52.580Z,99335.69
2022-10-13T13:03:06.897Z,99333.02
2022-10-13T13:06:37.310Z,99324.62
2022-10-13T13:09:51.076Z,99320.03
2022-10-13T13:13:25.679Z,99317.36
2022-10-13T13:16:37.389Z,99317.72
2022-10-13T13:19:53.161Z,99313.48
2022-10-13T13:23:05.722Z,99313.31
2022-10-13T13:26:23.811Z,99306.39
2022-10-13T13:29:35.408Z,99296.70
2022-10-13T13:32:47.335Z,99307.48
2022-10-13T13:35:59.388Z,99303.44
2022-10-13T13:39:13.477Z,99299.42
2022-10-13T13:42:27.249Z,99306.36
2022-10-13T13:45:39.510Z,99306.53
2022-10-13T13:48:51.926Z,99306.15
2022-10-13T13:52:03.744Z,99310.70
2022-10-13T13:55:25.056Z,99311.59
2022-10-13T13:58:36.773Z,99300.89
2022-10-13T14:01:48.542Z,99305.77
2022-10-13T14:05:00.487Z,99302.95
2022-10-13T14:08:14.030Z,99295.58
2022-10-13T14:11:26.276Z,99303.59
2022-10-13T14:14:39.196Z,99293.84
2022-10-13T14:17:53.037Z,99299.85
2022-10-13T14:21:08.448Z,99298.17
2022-10-13T14:24:20.420Z,99298.16
2022-10-13T14:27:34.134Z,99307.02
2022-10-13T14:30:49.344Z,99290.11
2022-10-13T14:34:01.510Z,99295.46
2022-10-13T14:37:15.229Z,99294.95
2022-10-13T14:40:27.372Z,99289.41
2022-10-13T14:43:41.498Z,99286.39
2022-10-13T14:46:53.295Z,99286.70
2022-10-13T14:50:05.182Z,99282.67
2022-10-13T14:53:18.003Z,99281.83
2022-10-13T14:56:31.975Z,99292.34
2022-10-13T14:59:43.633Z,99286.95
2022-10-13T15:02:55.362Z,99284.38
2022-10-13T15:06:07.837Z,99289.22
2022-10-13T15:09:21.099Z,99294.88
2022-10-13T15:12:33.255Z,99289.31
2022-10-13T15:15:51.604Z,99292.80
2022-10-13T15:19:03.956Z,99284.72
2022-10-13T15:22:15.775Z,99290.41
2022-10-13T15:25:27.367Z,99282.33
2022-10-13T15:28:43.324Z,99287.63
2022-10-13T15:31:55.250Z,99290.41
2022-10-13T15:35:06.958Z,99286.48
2022-10-13T15:38:18.795Z,99294.05
2022-10-13T15:41:30.486Z,99282.23
2022-10-13T15:45:09.529Z,99280.44
2022-10-13T15:47:58.120Z,99272.52
2022-10-13T15:51:14.279Z,99276.13
2022-10-13T15:54:28.252Z,99278.71
2022-10-13T15:57:39.886Z,99279.77
2022-10-13T16:00:52.136Z,99288.16
2022-10-13T16:04:04.015Z,99281.48
2022-10-13T16:07:16.218Z,99282.48
2022-10-13T16:10:28.204Z,99285.06
2022-10-13T16:13:45.556Z,99285.50
2022-10-13T16:16:59.148Z,99283.14
2022-10-13T16:20:13.437Z,99284.11
2022-10-13T16:23:25.121Z,99288.91
2022-10-13T16:26:36.743Z,99286.73
2022-10-13T16:29:48.441Z,99280.59
2022-10-13T16:33:00.113Z,99276.16
2022-10-13T16:36:15.430Z,99288.34
2022-10-13T16:39:28.537Z,99287.53
2022-10-13T16:42:41.823Z,99289.08
2022-10-13T16:46:02.950Z,99288.23
2022-10-13T16:49:15.651Z,99277.37
2022-10-13T16:56:44.705Z,99285.27
2022-10-13T16:59:58.950Z,99293.13
2022-10-13T17:03:14.491Z,99282.79
2022-10-13T17:06:29.043Z,99287.41
2022-10-13T17:09:40.997Z,99286.83
2022-10-13T17:12:52.996Z,99290.34
2022-10-13T17:16:05.742Z,99282.91
2022-10-13T17:19:18.100Z,99292.56
2022-10-13T17:22:30.022Z,99286.84
2022-10-13T17:25:42.982Z,99288.23
2022-10-13T17:28:55.431Z,99283.88
2022-10-13T17:32:07.330Z,99281.52
2022-10-13T17:35:19.567Z,99280.20
2022-10-13T17:38:31.712Z,99283.38
2022-10-13T17:41:43.851Z,99278.03
2022-10-13T17:44:57.589Z,99284.30
2022-10-13T17:48:12.998Z,99271.12
2022-10-13T17:51:25.910Z,99271.80
2022-10-13T17:54:37.992Z,99274.48
2022-10-13T17:57:49.884Z,99278.16
2022-10-13T18:01:14.380Z,99278.16
2022-10-13T18:04:23.613Z,99279.57
2022-10-13T18:11:53.775Z,99279.42
2022-10-13T18:15:05.708Z,99280.81
2022-10-13T18:18:17.635Z,99280.65
2022-10-13T18:21:30.959Z,99280.91
2022-10-13T18:24:42.918Z,99269.84
2022-10-13T18:27:54.827Z,99267.58
2022-10-13T18:31:16.127Z,99273.57
2022-10-13T18:34:28.129Z,99271.88
2022-10-13T18:37:40.148Z,99276.94
2022-10-13T18:40:51.921Z,99270.59
2022-10-13T18:44:03.959Z,99267.20
2022-10-13T18:47:15.994Z,99270.24
2022-10-13T18:50:27.921Z,99273.13
2022-10-13T18:53:40.639Z,99275.14
2022-10-13T18:56:52.826Z,99271.34
2022-10-13T19:00:06.199Z,99272.38
2022-10-13T19:03:17.923Z,99273.98
2022-10-13T19:06:32.883Z,99274.11
2022-10-13T19:09:44.644Z,99270.50
2022-10-13T19:12:56.797Z,99268.36
2022-10-13T19:16:11.363Z,99267.65
2022-10-13T19:19:23.277Z,99267.24
2022-10-13T19:22:36.967Z,99263.57
2022-10-13T19:25:50.968Z,99261.19
2022-10-13T19:29:05.781Z,99261.77
2022-10-13T19:32:18.100Z,99258.98
2022-10-13T19:35:30.135Z,99251.66
2022-10-13T19:38:42.413Z,99255.20
2022-10-13T19:41:56.033Z,99258.25
2022-10-13T19:45:10.988Z,99264.06
2022-10-13T19:48:23.185Z,99257.05
2022-10-13T19:51:35.121Z,99260.08
2022-10-13T19:54:47.115Z,99262.02
2022-10-13T19:57:58.829Z,99267.63
2022-10-13T20:01:12.668Z,99270.52
2022-10-13T20:04:25.440Z,99258.73
2022-10-13T20:07:37.108Z,99272.22
2022-10-13T20:10:51.167Z,99268.39
2022-10-13T20:14:03.071Z,99263.36
2022-10-13T20:17:14.945Z,99266.95
2022-10-13T20:20:26.772Z,99266.23
2022-10-13T20:23:40.684Z,99265.28
2022-10-13T20:26:52.612Z,99255.89
2022-10-13T20:30:06.615Z,99260.95
2022-10-13T20:33:18.377Z,99262.88
2022-10-13T20:36:37.480Z,99252.89
2022-10-13T20:39:46.628Z,99256.03
2022-10-13T20:43:00.104Z,99257.47
2022-10-13T20:46:13.887Z,99259.05
2022-10-13T20:49:29.245Z,99248.67
2022-10-13T20:52:41.490Z,99252.17
2022-10-13T20:56:02.415Z,99251.08
2022-10-13T20:59:18.620Z,99255.18
2022-10-13T21:02:30.297Z,99250.11
2022-10-13T21:05:42.087Z,99253.13
2022-10-13T21:08:54.393Z,99246.98
2022-10-13T21:12:06.146Z,99251.78
2022-10-13T21:15:18.810Z,99255.53
2022-10-13T21:18:30.784Z,99248.53
2022-10-13T21:21:43.040Z,99258.64
2022-10-13T21:24:54.953Z,99256.00
2022-10-13T21:28:07.377Z,99250.32
2022-10-13T21:31:21.876Z,99248.87
2022-10-13T21:34:33.971Z,99252.58
2022-10-13T21:37:46.653Z,99258.30
2022-10-13T21:40:59.501Z,99256.76
2022-10-13T21:44:11.727Z,99246.90
2022-10-13T21:47:23.646Z,99248.09
2022-10-13T21:50:36.683Z,99244.72
2022-10-13T21:53:50.996Z,99238.80
2022-10-13T21:57:02.964Z,99245.27
2022-10-13T22:00:22.052Z,99248.77
2022-10-13T22:03:34.751Z,99257.44
2022-10-13T22:06:46.901Z,99256.25
2022-10-13T22:09:58.595Z,99249.03
2022-10-13T22:13:10.249Z,99250.48
2022-10-13T22:16:24.986Z,99242.34
2022-10-13T22:19:36.907Z,99242.12
2022-10-13T22:22:48.606Z,99255.23
2022-10-13T22:26:00.319Z,99255.86
2022-10-13T22:29:14.494Z,99244.81
2022-10-13T22:32:27.717Z,99247.93
2022-10-13T22:35:41.134Z,99247.08
2022-10-13T22:38:54.990Z,99247.33
2022-10-13T22:42:06.913Z,99248.91
2022-10-13T22:45:19.562Z,99243.61
2022-10-13T22:48:31.425Z,99244.81
2022-10-13T22:51:43.860Z,99255.31
2022-10-13T22:54:55.983Z,99252.28
2022-10-13T22:58:07.729Z,99250.36
2022-10-13T23:01:21.297Z,99245.44
2022-10-13T23:04:33.748Z,99247.36
2022-10-13T23:07:45.667Z,99246.04
2022-10-13T23:10:57.605Z,99252.66
2022-10-13T23:14:10.053Z,99254.23
2022-10-13T23:17:22.468Z,99250.01
2022-10-13T23:20:36.137Z,99244.47
2022-10-13T23:23:48.960Z,99239.52
2022-10-13T23:27:01.407Z,99227.13
2022-10-13T23:30:17.890Z,99234.35
2022-10-13T23:33:29.613Z,99226.78
2022-10-13T23:36:41.353Z,99217.25
2022-10-13T23:39:53.373Z,99218.48
2022-10-13T23:43:05.163Z,99213.06
2022-10-13T23:46:17.279Z,99210.29
2022-10-13T23:49:29.145Z,99208.25
2022-10-13T23:52:41.277Z,99212.23
2022-10-13T23:55:53.543Z,99210.52
2022-10-13T23:59:08.223Z,99210.41
